Time;durP1;ratioP1;P1;durP2;ratioP2;P2;SDS_P1;SDS_P2;PMS_P1;PMS_P2;Temp;Humidity;BMP_temperature;BMP_pressure;BME280_temperature;BME280_humidity;BME280_pressure;Samples;Min_cycle;Max_cycle;Signal;HPM_P1;HPM_P2
2021/09/27 00:02:26;;;;;;;21.37;14.07;;;14.10;99.90;;;;;;4423807;28;660633;-70
2021/09/27 00:05:15;;;;;;;24.17;14.47;;;14.10;99.90;;;;;;4395639;28;659809;-70
2021/09/27 00:08:03;;;;;;;23.53;14.53;;;14.10;99.90;;;;;;4402695;28;659819;-70
2021/09/27 00:10:52;;;;;;;23.23;15.10;;;14.10;99.90;;;;;;4410159;28;661061;-70
2021/09/27 00:13:42;;;;;;;27.83;15.57;;;14.10;99.90;;;;;;4401437;28;660199;-70
2021/09/27 00:16:30;;;;;;;27.43;16.27;;;14.10;99.90;;;;;;4406506;28;660422;-70
2021/09/27 00:19:18;;;;;;;33.17;16.23;;;14.10;99.90;;;;;;4406705;28;659594;-70
2021/09/27 00:22:06;;;;;;;28.67;16.63;;;14.00;99.90;;;;;;4428954;28;660277;-69
2021/09/27 00:24:54;;;;;;;27.47;16.37;;;14.00;99.90;;;;;;4404540;28;659997;-70
2021/09/27 00:27:41;;;;;;;29.63;16.57;;;14.00;99.90;;;;;;4429045;28;660914;-70
2021/09/27 00:30:30;;;;;;;27.50;17.63;;;14.00;99.90;;;;;;4405819;28;660063;-70
2021/09/27 00:33:18;;;;;;;28.03;17.17;;;13.90;99.90;;;;;;4406445;28;659449;-70
2021/09/27 00:36:06;;;;;;;26.67;16.37;;;14.00;99.90;;;;;;4428359;28;660138;-70
2021/09/27 00:38:53;;;;;;;27.87;17.57;;;13.90;99.90;;;;;;4399729;28;659555;-70
2021/09/27 00:41:41;;;;;;;33.37;17.90;;;13.90;99.90;;;;;;4425110;28;659584;-70
2021/09/27 00:44:29;;;;;;;28.10;18.50;;;13.80;99.90;;;;;;4406132;28;660120;-70
2021/09/27 00:47:18;;;;;;;26.23;17.27;;;13.80;99.90;;;;;;4424783;28;659721;-70
2021/09/27 00:50:06;;;;;;;32.73;18.33;;;13.80;99.90;;;;;;4401288;28;660077;-70
2021/09/27 00:52:54;;;;;;;35.80;19.40;;;13.80;99.90;;;;;;4404755;28;659343;-70
2021/09/27 00:55:41;;;;;;;30.20;18.27;;;13.80;99.90;;;;;;4425859;28;660022;-70
2021/09/27 00:58:29;;;;;;;31.07;18.60;;;13.80;99.90;;;;;;4406457;28;660534;-70
2021/09/27 01:01:16;;;;;;;29.60;19.23;;;13.70;99.90;;;;;;4425360;28;659789;-70
2021/09/27 01:04:05;;;;;;;28.20;18.88;;;13.70;99.90;;;;;;4405938;28;660572;-70
2021/09/27 01:07:00;;;;;;;32.90;19.37;;;13.70;99.90;;;;;;4403990;28;660494;-70
2021/09/27 01:10:08;;;;;;;34.15;20.00;;;13.70;99.90;;;;;;4407142;28;660626;-70
2021/09/27 01:13:19;;;;;;;33.83;18.70;;;13.70;99.90;;;;;;4402039;28;659764;-70
2021/09/27 01:16:11;;;;;;;31.50;20.13;;;13.70;99.90;;;;;;4407331;28;660454;-70
2021/09/27 01:19:06;;;;;;;33.97;20.70;;;13.70;99.90;;;;;;4386688;28;660243;-70
2021/09/27 01:21:54;;;;;;;36.13;21.10;;;13.80;99.90;;;;;;4382047;28;660507;-70
2021/09/27 01:25:16;;;;;;;34.67;20.87;;;13.80;99.90;;;;;;4424241;28;659452;-70
2021/09/27 01:28:36;;;;;;;37.20;21.30;;;13.80;99.90;;;;;;4381525;28;659782;-71
2021/09/27 01:32:06;;;;;;;35.77;21.67;;;13.80;99.90;;;;;;4405720;28;660145;-70
2021/09/27 01:34:58;;;;;;;36.50;22.27;;;13.90;99.90;;;;;;4381281;28;659996;-70
2021/09/27 01:37:52;;;;;;;42.40;22.70;;;13.90;99.90;;;;;;4405303;28;660811;-70
2021/09/27 01:40:45;;;;;;;42.33;22.57;;;14.00;99.90;;;;;;4382288;28;660666;-70
2021/09/27 01:43:36;;;;;;;37.40;22.60;;;14.00;99.90;;;;;;4394580;28;660064;-70
2021/09/27 01:46:26;;;;;;;42.53;24.17;;;14.10;99.90;;;;;;4405656;28;659636;-70
2021/09/27 01:49:16;;;;;;;41.80;23.47;;;14.10;99.90;;;;;;4409943;28;660118;-70
2021/09/27 01:52:07;;;;;;;41.70;23.53;;;14.10;99.90;;;;;;4407843;28;659587;-69
2021/09/27 01:54:56;;;;;;;38.97;21.27;;;14.10;99.90;;;;;;4406505;28;660471;-70
2021/09/27 01:57:46;;;;;;;38.40;21.77;;;14.10;99.90;;;;;;4408261;28;659673;-70
2021/09/27 02:00:36;;;;;;;41.30;22.47;;;14.20;99.90;;;;;;4409856;28;659963;-70
2021/09/27 02:03:26;;;;;;;43.43;21.13;;;14.20;99.90;;;;;;4405641;28;659492;-70
2021/09/27 02:06:17;;;;;;;36.70;20.77;;;14.20;99.90;;;;;;4412609;28;660232;-70
2021/09/27 02:09:07;;;;;;;35.70;21.20;;;14.20;99.90;;;;;;4404774;28;660455;-70
2021/09/27 02:11:57;;;;;;;41.93;22.37;;;14.20;99.90;;;;;;4407382;28;660625;-70
2021/09/27 02:14:48;;;;;;;36.40;22.03;;;14.10;99.90;;;;;;4406381;28;660045;-70
2021/09/27 02:17:38;;;;;;;33.47;20.30;;;14.10;99.90;;;;;;4402431;28;660237;-70
2021/09/27 02:20:28;;;;;;;34.73;20.67;;;14.10;99.90;;;;;;4400113;28;660597;-70
2021/09/27 02:23:19;;;;;;;35.73;20.97;;;14.10;99.90;;;;;;4399692;28;660471;-70
2021/09/27 02:26:07;;;;;;;36.77;20.23;;;14.10;99.90;;;;;;4402322;28;659500;-70
2021/09/27 02:28:54;;;;;;;36.50;20.00;;;14.10;99.90;;;;;;4397279;28;660717;-70
2021/09/27 02:31:47;;;;;;;35.40;19.97;;;14.10;99.90;;;;;;4422151;28;660428;-70
2021/09/27 02:34:37;;;;;;;37.47;21.27;;;14.10;99.90;;;;;;4380825;28;660341;-70
2021/09/27 02:37:28;;;;;;;35.40;20.03;;;14.20;99.90;;;;;;4403607;28;661414;-70
2021/09/27 02:40:19;;;;;;;34.50;20.80;;;14.20;99.90;;;;;;4400899;28;660467;-70
2021/09/27 02:43:08;;;;;;;33.80;20.03;;;14.20;99.90;;;;;;4401724;28;660091;-70
2021/09/27 02:45:57;;;;;;;32.93;20.43;;;14.20;99.90;;;;;;4399071;28;660126;-70
2021/09/27 02:48:54;;;;;;;38.10;21.40;;;14.20;99.90;;;;;;4407699;28;660022;-70
2021/09/27 02:51:43;;;;;;;37.00;21.33;;;14.20;99.90;;;;;;4395649;28;659616;-70
2021/09/27 02:54:33;;;;;;;37.07;21.67;;;14.20;99.90;;;;;;4399989;28;661059;-70
2021/09/27 02:57:31;;;;;;;37.43;21.13;;;14.20;99.90;;;;;;4400124;28;660530;-70
2021/09/27 03:00:20;;;;;;;38.93;21.10;;;14.20;99.90;;;;;;4401659;28;659603;-70
2021/09/27 03:03:11;;;;;;;37.13;20.45;;;14.20;99.90;;;;;;4407828;28;659697;-70
2021/09/27 03:06:05;;;;;;;38.88;21.13;;;14.20;99.90;;;;;;4401693;28;659872;-70
2021/09/27 03:09:02;;;;;;;41.73;21.83;;;14.20;99.90;;;;;;4386770;28;659798;-70
2021/09/27 03:12:04;;;;;;;35.53;20.77;;;14.20;99.90;;;;;;4398991;28;660159;-70
2021/09/27 03:15:42;;;;;;;39.43;21.63;;;14.20;99.90;;;;;;4404477;28;659925;-70
2021/09/27 03:18:42;;;;;;;38.20;21.43;;;14.20;99.90;;;;;;4328695;28;660481;-70
2021/09/27 03:21:34;;;;;;;34.03;20.53;;;14.20;99.90;;;;;;4351249;28;660709;-70
2021/09/27 03:24:35;;;;;;;37.77;21.97;;;14.20;99.90;;;;;;4351220;28;659891;-70
2021/09/27 03:27:25;;;;;;;36.03;21.00;;;14.20;99.90;;;;;;4356217;28;659973;-70
2021/09/27 03:30:16;;;;;;;39.00;21.13;;;14.20;99.90;;;;;;4376570;28;660050;-70
2021/09/27 03:33:09;;;;;;;37.27;21.30;;;14.20;99.90;;;;;;4354039;28;659871;-70
2021/09/27 03:36:11;;;;;;;34.67;20.67;;;14.20;99.90;;;;;;4349305;28;660033;-70
2021/09/27 03:39:02;;;;;;;35.43;20.87;;;14.20;99.90;;;;;;4352273;28;660580;-70
2021/09/27 03:41:51;;;;;;;34.77;19.60;;;14.20;99.90;;;;;;4355419;28;660446;-70
2021/09/27 03:44:45;;;;;;;36.33;20.53;;;14.10;99.90;;;;;;4359959;28;659392;-70
2021/09/27 03:47:35;;;;;;;37.45;20.33;;;14.10;99.90;;;;;;4349020;28;659857;-70
2021/09/27 03:50:26;;;;;;;36.63;20.60;;;14.10;99.90;;;;;;4359015;28;660222;-70
2021/09/27 03:53:16;;;;;;;40.23;19.23;;;14.10;99.90;;;;;;4355152;28;659550;-70
2021/09/27 03:56:05;;;;;;;33.13;20.83;;;14.10;99.90;;;;;;4350479;28;659674;-70
2021/09/27 03:58:56;;;;;;;33.43;18.87;;;14.10;99.90;;;;;;4390307;28;659835;-70
2021/09/27 04:01:48;;;;;;;37.57;19.83;;;14.10;99.90;;;;;;4419765;28;659621;-70
2021/09/27 04:04:39;;;;;;;32.67;19.27;;;14.00;99.90;;;;;;4420846;28;659895;-70
2021/09/27 04:07:38;;;;;;;33.53;19.55;;;14.00;99.90;;;;;;4414754;28;660406;-70
2021/09/27 04:10:29;;;;;;;36.00;20.53;;;14.00;99.90;;;;;;4416762;28;661254;-70
2021/09/27 04:13:21;;;;;;;37.03;19.93;;;14.00;99.90;;;;;;4405509;28;660058;-70
2021/09/27 04:16:23;;;;;;;39.87;20.37;;;14.00;99.90;;;;;;4400891;28;660122;-70
2021/09/27 04:19:24;;;;;;;34.90;19.27;;;14.00;99.90;;;;;;4400045;28;660638;-70
2021/09/27 04:22:14;;;;;;;31.07;19.37;;;14.00;99.90;;;;;;4400073;28;660259;-70
2021/09/27 04:25:07;;;;;;;34.50;20.00;;;14.00;99.90;;;;;;4394934;28;660053;-69
2021/09/27 04:28:30;;;;;;;33.70;19.90;;;14.00;99.90;;;;;;4372955;28;660345;-69
2021/09/27 04:31:18;;;;;;;32.83;19.00;;;14.00;99.90;;;;;;4416203;28;659657;-70
2021/09/27 04:34:19;;;;;;;31.77;20.37;;;14.00;99.90;;;;;;4428857;28;660394;-70
2021/09/27 04:37:07;;;;;;;35.37;18.70;;;14.00;99.90;;;;;;4402350;28;660393;-69
2021/09/27 04:40:19;;;;;;;33.20;18.80;;;13.90;99.90;;;;;;4405345;28;660479;-70
2021/09/27 04:43:26;;;;;;;34.40;18.60;;;13.90;99.90;;;;;;4400310;28;659377;-70
2021/09/27 04:46:16;;;;;;;30.90;17.63;;;13.90;99.90;;;;;;4375690;28;660394;-70
2021/09/27 04:49:08;;;;;;;33.40;19.13;;;13.90;99.90;;;;;;4406826;28;660252;-70
2021/09/27 04:52:04;;;;;;;33.63;18.03;;;13.90;99.90;;;;;;4400954;28;660429;-69
2021/09/27 04:55:14;;;;;;;33.40;18.20;;;13.90;99.90;;;;;;4398939;28;659690;-70
2021/09/27 04:58:14;;;;;;;31.67;18.37;;;13.90;99.90;;;;;;4400530;28;659677;-70
2021/09/27 05:01:09;;;;;;;31.57;17.97;;;13.90;99.90;;;;;;4399486;28;659710;-70
2021/09/27 05:04:07;;;;;;;29.10;18.03;;;13.90;99.90;;;;;;4399133;28;660187;-69
2021/09/27 05:07:10;;;;;;;29.40;17.47;;;13.90;99.90;;;;;;4377175;28;660379;-69
2021/09/27 05:10:05;;;;;;;36.57;18.03;;;13.90;99.90;;;;;;4406937;28;659573;-69
2021/09/27 05:13:17;;;;;;;31.20;17.33;;;13.90;99.90;;;;;;4382994;28;660084;-69
2021/09/27 05:16:12;;;;;;;33.00;18.43;;;13.90;99.90;;;;;;4383727;28;660963;-69
2021/09/27 05:19:27;;;;;;;30.93;18.63;;;13.90;99.90;;;;;;4380836;28;660037;-70
2021/09/27 05:22:38;;;;;;;31.60;17.17;;;13.90;99.90;;;;;;4382836;28;660304;-70
2021/09/27 05:25:45;;;;;;;35.07;18.87;;;13.90;99.90;;;;;;4406584;28;659859;-69
2021/09/27 05:28:43;;;;;;;29.37;17.30;;;13.90;99.90;;;;;;4387124;28;659534;-70
2021/09/27 05:31:55;;;;;;;35.70;19.10;;;14.00;99.90;;;;;;4400236;28;659771;-69
2021/09/27 05:34:50;;;;;;;32.60;18.20;;;14.00;99.90;;;;;;4393846;28;659418;-70
2021/09/27 05:37:47;;;;;;;32.70;17.67;;;14.00;99.90;;;;;;4409783;28;659753;-70
2021/09/27 05:40:44;;;;;;;40.03;18.37;;;14.10;99.90;;;;;;4380493;28;660668;-69
2021/09/27 05:43:44;;;;;;;30.93;17.47;;;14.10;99.90;;;;;;4405366;28;660046;-70
2021/09/27 05:46:52;;;;;;;44.37;17.77;;;14.10;99.90;;;;;;4405855;28;660339;-70
2021/09/27 05:49:51;;;;;;;32.23;16.60;;;14.10;99.90;;;;;;4410204;28;659806;-70
2021/09/27 05:52:43;;;;;;;29.20;16.50;;;14.10;99.90;;;;;;4381110;28;660868;-70
2021/09/27 05:55:39;;;;;;;29.47;17.30;;;14.20;99.90;;;;;;4405832;28;661142;-70
2021/09/27 05:58:33;;;;;;;39.30;18.60;;;14.20;99.90;;;;;;4405446;28;659737;-70
2021/09/27 06:01:32;;;;;;;29.13;16.53;;;14.20;99.90;;;;;;4409361;28;660106;-70
2021/09/27 06:04:34;;;;;;;35.10;16.90;;;14.30;99.90;;;;;;4382747;28;661080;-70
2021/09/27 06:07:30;;;;;;;35.47;17.17;;;14.30;99.90;;;;;;4405239;28;660147;-69
2021/09/27 06:10:23;;;;;;;31.53;17.93;;;14.30;99.90;;;;;;4428275;28;659403;-70
2021/09/27 06:13:20;;;;;;;29.55;17.63;;;14.40;99.90;;;;;;4403829;28;661188;-70
2021/09/27 06:16:12;;;;;;;39.13;18.80;;;14.40;99.90;;;;;;4412881;28;659826;-69
2021/09/27 06:19:07;;;;;;;38.13;18.83;;;14.50;99.90;;;;;;4395389;28;660583;-70
2021/09/27 06:22:14;;;;;;;31.40;18.20;;;14.50;99.90;;;;;;4376635;28;660300;-69
2021/09/27 06:25:06;;;;;;;29.50;17.63;;;14.50;99.90;;;;;;4401724;28;659828;-70
2021/09/27 06:28:02;;;;;;;31.37;18.57;;;14.60;99.90;;;;;;4398950;28;660041;-70
2021/09/27 06:30:55;;;;;;;34.37;18.80;;;14.60;99.90;;;;;;4402302;28;659745;-70
2021/09/27 06:33:48;;;;;;;33.03;17.60;;;14.70;99.90;;;;;;4374131;28;660782;-70
2021/09/27 06:36:39;;;;;;;36.03;17.83;;;14.70;99.90;;;;;;4410494;28;660489;-70
2021/09/27 06:39:33;;;;;;;33.80;17.43;;;14.60;99.90;;;;;;4398371;28;661360;-69
2021/09/27 06:42:21;;;;;;;30.60;18.37;;;14.70;99.90;;;;;;4407472;28;660084;-69
2021/09/27 06:45:11;;;;;;;34.40;17.87;;;14.70;99.90;;;;;;4408147;28;659825;-70
2021/09/27 06:47:59;;;;;;;36.43;17.70;;;14.70;99.90;;;;;;4402264;28;659873;-70
2021/09/27 06:50:47;;;;;;;35.57;17.73;;;14.70;99.90;;;;;;4425227;28;659292;-70
2021/09/27 06:53:36;;;;;;;31.80;17.63;;;14.70;99.90;;;;;;4395227;28;661026;-70
2021/09/27 06:56:28;;;;;;;29.73;18.07;;;14.70;99.90;;;;;;4412138;28;659913;-69
2021/09/27 06:59:20;;;;;;;30.13;17.33;;;14.80;99.90;;;;;;4407215;28;660389;-70
2021/09/27 07:02:12;;;;;;;26.83;16.33;;;14.90;99.90;;;;;;4392935;28;659916;-69
2021/09/27 07:05:00;;;;;;;28.77;16.20;;;15.00;99.90;;;;;;4403326;28;661021;-70
2021/09/27 07:07:48;;;;;;;29.00;16.57;;;15.10;99.90;;;;;;4407161;28;659536;-70
2021/09/27 07:10:38;;;;;;;39.97;16.43;;;15.10;99.90;;;;;;4419828;28;660185;-69
2021/09/27 07:13:28;;;;;;;34.03;16.20;;;15.10;99.90;;;;;;4390989;28;660189;-70
2021/09/27 07:16:21;;;;;;;27.27;17.07;;;15.20;99.90;;;;;;4388568;28;661103;-70
2021/09/27 07:19:11;;;;;;;24.33;14.73;;;15.30;99.90;;;;;;4365184;28;660108;-70
2021/09/27 07:22:02;;;;;;;25.30;14.90;;;15.40;99.90;;;;;;4398137;28;660009;-70
2021/09/27 07:24:52;;;;;;;24.87;15.10;;;15.40;99.90;;;;;;4389572;28;661507;-70
2021/09/27 07:27:41;;;;;;;26.80;15.83;;;15.50;99.90;;;;;;4406736;28;660259;-70
2021/09/27 07:30:30;;;;;;;25.83;15.80;;;15.70;99.90;;;;;;4397369;28;659981;-70
2021/09/27 07:33:22;;;;;;;22.47;13.87;;;15.80;99.90;;;;;;4399274;28;659760;-70
2021/09/27 07:36:11;;;;;;;23.03;14.17;;;15.80;99.90;;;;;;4391812;28;660304;-70
2021/09/27 07:38:59;;;;;;;22.00;14.67;;;15.80;99.90;;;;;;4393661;28;659974;-70
2021/09/27 07:41:50;;;;;;;23.57;14.53;;;15.90;99.90;;;;;;4412775;28;659282;-70
2021/09/27 07:44:39;;;;;;;20.67;13.53;;;16.00;99.90;;;;;;4381335;28;659964;-70
2021/09/27 07:47:28;;;;;;;22.07;13.73;;;16.20;99.90;;;;;;4417930;28;659995;-70
2021/09/27 07:50:18;;;;;;;22.30;13.60;;;16.40;99.90;;;;;;4405676;28;660260;-70
2021/09/27 07:53:06;;;;;;;19.43;13.90;;;16.60;99.90;;;;;;4397006;28;661024;-70
2021/09/27 07:55:54;;;;;;;20.33;12.67;;;16.70;99.90;;;;;;4398742;28;659391;-70
2021/09/27 07:58:41;;;;;;;19.07;13.23;;;16.80;99.90;;;;;;4412291;28;659902;-70
2021/09/27 08:01:29;;;;;;;20.07;12.80;;;17.00;99.90;;;;;;4391640;28;660690;-70
2021/09/27 08:04:19;;;;;;;17.63;12.27;;;17.20;99.90;;;;;;4409863;28;659142;-70
2021/09/27 08:07:07;;;;;;;20.67;12.73;;;17.30;99.90;;;;;;4388223;28;659647;-70
2021/09/27 08:09:55;;;;;;;18.37;12.17;;;17.40;99.90;;;;;;4385566;28;661508;-70
2021/09/27 08:12:42;;;;;;;18.37;12.67;;;17.60;99.90;;;;;;4405108;28;660220;-70
2021/09/27 08:15:32;;;;;;;20.67;13.40;;;17.40;99.90;;;;;;4390784;28;661153;-70
2021/09/27 08:18:20;;;;;;;21.13;12.23;;;17.30;99.90;;;;;;4401680;28;661738;-70
2021/09/27 08:21:11;;;;;;;18.93;12.23;;;17.50;99.90;;;;;;4423361;28;659776;-70
2021/09/27 08:23:58;;;;;;;21.77;12.40;;;17.60;99.90;;;;;;4407558;28;659811;-70
2021/09/27 08:26:46;;;;;;;18.93;12.40;;;17.90;99.90;;;;;;4422613;28;660735;-71
2021/09/27 08:29:35;;;;;;;23.17;13.70;;;18.10;99.90;;;;;;4394580;28;661081;-70
2021/09/27 08:32:23;;;;;;;21.43;12.90;;;18.30;99.90;;;;;;4412949;28;659420;-70
2021/09/27 08:35:11;;;;;;;21.73;13.87;;;18.30;92.20;;;;;;4425264;28;659729;-70
2021/09/27 08:38:00;;;;;;;23.13;14.30;;;18.30;91.10;;;;;;4402269;28;660542;-70
2021/09/27 08:40:59;;;;;;;26.70;14.50;;;18.50;95.90;;;;;;4402548;28;659932;-70
2021/09/27 08:44:04;;;;;;;24.07;14.80;;;18.50;76.70;;;;;;4407719;28;660016;-70
2021/09/27 08:46:52;;;;;;;22.30;13.87;;;18.60;78.90;;;;;;4386728;28;659726;-70
2021/09/27 08:49:42;;;;;;;25.23;15.50;;;18.60;59.40;;;;;;4390415;28;660267;-70
2021/09/27 08:52:32;;;;;;;24.17;15.17;;;18.70;75.80;;;;;;4388429;28;662088;-70
2021/09/27 08:55:21;;;;;;;23.73;15.33;;;18.80;67.10;;;;;;4390240;28;660911;-70
2021/09/27 08:58:15;;;;;;;27.83;16.30;;;18.80;61.80;;;;;;4392286;28;660825;-70
2021/09/27 09:01:05;;;;;;;27.13;15.27;;;18.80;1.00;;;;;;4383882;28;659444;-70
2021/09/27 09:03:56;;;;;;;25.73;15.77;;;18.80;1.00;;;;;;4397998;28;658508;-70
2021/09/27 09:06:46;;;;;;;21.87;14.33;;;19.00;1.00;;;;;;4403340;28;659092;-70
2021/09/27 09:09:39;;;;;;;26.07;14.17;;;19.00;1.00;;;;;;4410636;28;660174;-70
2021/09/27 09:12:30;;;;;;;22.90;14.27;;;19.10;1.00;;;;;;4407554;28;659420;-70
2021/09/27 09:15:20;;;;;;;22.30;14.37;;;19.30;1.00;;;;;;4392114;28;658953;-70
2021/09/27 09:18:10;;;;;;;23.87;14.10;;;19.50;1.00;;;;;;4426927;28;658704;-70
2021/09/27 09:20:59;;;;;;;25.23;13.57;;;19.60;99.90;;;;;;4408983;28;658418;-70
2021/09/27 09:23:49;;;;;;;20.07;12.90;;;19.90;99.90;;;;;;4428116;28;660117;-70
2021/09/27 09:26:38;;;;;;;24.10;14.27;;;20.00;99.90;;;;;;4405748;28;659984;-70
2021/09/27 09:29:29;;;;;;;18.87;12.83;;;20.30;99.90;;;;;;4404758;28;659938;-70
2021/09/27 09:32:21;;;;;;;19.37;13.07;;;20.60;99.90;;;;;;4404082;28;659887;-70
2021/09/27 09:35:18;;;;;;;21.43;12.50;;;21.00;73.20;;;;;;4384534;28;659762;-70
2021/09/27 09:38:07;;;;;;;20.30;12.90;;;21.10;1.00;;;;;;4402239;28;660171;-71
2021/09/27 09:40:56;;;;;;;21.80;13.37;;;21.10;1.00;;;;;;4401464;28;660129;-70
2021/09/27 09:43:45;;;;;;;22.17;12.70;;;21.40;1.00;;;;;;4404162;28;659172;-70
2021/09/27 09:46:35;;;;;;;21.53;13.13;;;21.50;1.00;;;;;;4409851;28;658761;-70
2021/09/27 09:49:23;;;;;;;20.43;12.83;;;21.40;1.00;;;;;;4410147;28;658472;-70
2021/09/27 09:52:12;;;;;;;19.57;11.67;;;21.60;1.00;;;;;;4430631;28;659598;-70
2021/09/27 09:55:00;;;;;;;17.53;11.20;;;21.70;1.00;;;;;;4406787;28;659059;-70
2021/09/27 09:57:56;;;;;;;20.97;11.83;;;22.40;1.00;;;;;;4418671;28;658790;-71
2021/09/27 10:00:47;;;;;;;16.30;10.30;;;22.70;99.90;;;;;;4399927;28;659329;-70
2021/09/27 10:03:39;;;;;;;15.50;10.03;;;22.70;99.90;;;;;;4409865;28;659980;-70
2021/09/27 10:06:31;;;;;;;13.50;10.10;;;22.50;99.90;;;;;;4406221;28;659957;-70
2021/09/27 10:09:26;;;;;;;16.23;10.07;;;22.70;99.90;;;;;;4382589;28;660302;-70
2021/09/27 10:12:15;;;;;;;16.07;9.83;;;22.90;26.70;;;;;;4406417;28;659392;-70
2021/09/27 10:15:03;;;;;;;14.97;9.93;;;23.20;1.00;;;;;;4422681;28;659017;-70
2021/09/27 10:17:51;;;;;;;15.83;10.60;;;23.20;1.00;;;;;;4426433;28;658771;-70
2021/09/27 10:20:42;;;;;;;12.90;9.47;;;23.30;1.00;;;;;;4407504;28;658758;-70
2021/09/27 10:23:31;;;;;;;14.27;10.13;;;23.50;1.00;;;;;;4407450;28;658488;-70
2021/09/27 10:26:22;;;;;;;15.87;10.47;;;23.80;99.90;;;;;;4410247;28;658468;-70
2021/09/27 10:29:11;;;;;;;15.55;12.15;;;24.00;99.90;;;;;;4409254;28;660323;-70
2021/09/27 10:32:00;;;;;;;14.95;9.80;;;24.10;99.90;;;;;;4403923;28;659753;-70
2021/09/27 10:34:48;;;;;;;16.17;9.40;;;24.30;96.40;;;;;;4405220;28;658796;-70
2021/09/27 10:37:37;;;;;;;14.23;9.50;;;24.20;1.00;;;;;;4426642;28;660077;-70
2021/09/27 10:40:25;;;;;;;18.05;10.00;;;24.00;1.00;;;;;;4390843;28;659467;-70
2021/09/27 10:43:14;;;;;;;14.05;9.68;;;24.00;1.00;;;;;;4427908;28;658969;-70
2021/09/27 10:46:02;;;;;;;14.07;9.52;;;23.70;1.00;;;;;;4403620;28;658533;-70
2021/09/27 10:48:52;;;;;;;14.75;9.57;;;24.00;1.00;;;;;;4410590;28;658922;-70
2021/09/27 10:51:40;;;;;;;16.85;10.40;;;24.40;1.00;;;;;;4406564;28;659671;-70
2021/09/27 10:54:35;;;;;;;18.58;10.35;;;24.40;1.00;;;;;;4409384;28;659201;-70
2021/09/27 10:57:24;;;;;;;16.17;10.05;;;24.90;1.00;;;;;;4386805;28;658704;-70
2021/09/27 11:00:17;;;;;;;17.20;10.82;;;24.50;99.90;;;;;;4428988;28;658562;-70
2021/09/27 11:03:21;;;;;;;14.77;11.18;;;24.70;99.90;;;;;;4379299;28;661003;-70
2021/09/27 11:06:27;;;;;;;20.55;11.07;;;24.80;99.90;;;;;;4380034;28;660269;-70
2021/09/27 11:09:18;;;;;;;17.98;10.52;;;25.10;99.90;;;;;;4379504;28;660497;-70
2021/09/27 11:12:08;;;;;;;24.05;11.18;;;25.20;99.90;;;;;;4401836;28;660193;-70
2021/09/27 11:15:01;;;;;;;14.73;10.70;;;25.30;99.90;;;;;;4400302;28;660079;-70
2021/09/27 11:17:49;;;;;;;19.45;10.77;;;25.00;99.90;;;;;;4400293;28;659852;-70
2021/09/27 11:21:09;;;;;;;14.88;10.65;;;25.30;99.90;;;;;;4412800;28;659966;-70
2021/09/27 11:24:04;;;;;;;15.07;10.43;;;25.80;99.90;;;;;;4365953;28;659610;-70
2021/09/27 11:27:12;;;;;;;20.10;10.73;;;25.90;99.90;;;;;;4394892;28;660035;-70
2021/09/27 11:30:22;;;;;;;16.85;10.90;;;25.90;99.90;;;;;;4361562;28;661057;-70
2021/09/27 11:33:36;;;;;;;15.55;9.85;;;25.60;1.00;;;;;;4365629;28;660153;-70
2021/09/27 11:36:26;;;;;;;15.85;10.38;;;25.70;1.00;;;;;;4377485;28;657370;-70
2021/09/27 11:39:24;;;;;;;15.82;9.98;;;26.10;1.00;;;;;;4406232;28;658961;-70
2021/09/27 11:42:25;;;;;;;17.75;10.60;;;26.60;1.00;;;;;;4403185;28;657557;-70
2021/09/27 11:45:18;;;;;;;16.35;10.02;;;26.60;1.00;;;;;;4391600;28;659240;-70
2021/09/27 11:48:10;;;;;;;16.92;9.82;;;26.50;1.00;;;;;;4400857;28;659039;-70
2021/09/27 11:51:05;;;;;;;14.10;9.45;;;26.40;1.00;;;;;;4393820;28;657432;-70
2021/09/27 11:54:22;;;;;;;17.90;10.57;;;27.00;99.90;;;;;;4381805;28;658540;-70
2021/09/27 11:57:20;;;;;;;19.57;10.10;;;26.90;99.90;;;;;;4374734;28;659974;-70
2021/09/27 12:00:10;;;;;;;22.48;11.32;;;26.90;86.60;;;;;;4383217;28;660020;-70
2021/09/27 12:03:04;;;;;;;19.73;10.93;;;26.80;99.90;;;;;;4418059;28;659488;-70
2021/09/27 12:05:54;;;;;;;27.43;12.47;;;27.20;26.60;;;;;;4384508;28;659944;-70
2021/09/27 12:08:46;;;;;;;20.75;11.13;;;27.20;1.00;;;;;;4388291;28;659380;-70
2021/09/27 12:11:35;;;;;;;21.15;11.50;;;27.20;7.70;;;;;;4381280;28;659692;-70
2021/09/27 12:14:26;;;;;;;22.70;12.77;;;27.50;92.40;;;;;;4414297;28;658583;-70
2021/09/27 12:17:14;;;;;;;21.85;11.40;;;27.30;1.00;;;;;;4413523;28;660100;-70
2021/09/27 12:20:06;;;;;;;24.33;11.77;;;27.30;99.90;;;;;;4428628;28;659060;-70
2021/09/27 12:22:54;;;;;;;20.20;11.93;;;27.50;1.00;;;;;;4393794;28;659761;-70
2021/09/27 12:25:43;;;;;;;24.55;12.40;;;27.30;1.00;;;;;;4443775;28;658827;-70
2021/09/27 12:28:31;;;;;;;22.80;12.15;;;27.00;1.00;;;;;;4414567;28;659284;-70
2021/09/27 12:31:22;;;;;;;21.58;12.77;;;26.90;1.00;;;;;;4415356;28;658297;-70
2021/09/27 12:34:11;;;;;;;24.25;12.95;;;26.80;1.00;;;;;;4398967;28;660702;-70
2021/09/27 12:36:59;;;;;;;24.48;13.70;;;26.80;1.00;;;;;;4409411;28;658778;-70
2021/09/27 12:39:47;;;;;;;30.98;13.75;;;26.50;1.00;;;;;;4417310;28;659165;-70
2021/09/27 12:42:38;;;;;;;35.03;16.95;;;26.60;99.90;;;;;;4395648;28;658966;-70
2021/09/27 12:45:27;;;;;;;27.85;13.88;;;26.60;99.90;;;;;;4401412;28;660889;-70
2021/09/27 12:48:19;;;;;;;22.83;13.30;;;26.80;99.90;;;;;;4403887;28;661498;-70
2021/09/27 12:51:08;;;;;;;27.23;13.70;;;27.20;99.90;;;;;;4399564;28;660374;-70
2021/09/27 12:53:56;;;;;;;31.23;14.90;;;27.50;41.00;;;;;;4401681;28;661541;-70
2021/09/27 12:56:44;;;;;;;29.90;14.55;;;27.70;1.00;;;;;;4407575;28;659780;-70
2021/09/27 12:59:32;;;;;;;22.35;12.68;;;27.90;1.00;;;;;;4426842;28;659205;-70
2021/09/27 13:02:19;;;;;;;29.45;12.68;;;28.20;1.00;;;;;;4408516;28;659454;-70
2021/09/27 13:05:13;;;;;;;22.55;12.52;;;27.90;99.90;;;;;;4424550;28;659272;-70
2021/09/27 13:08:01;;;;;;;24.15;11.95;;;28.30;1.00;;;;;;4399677;28;660788;-70
2021/09/27 13:10:54;;;;;;;20.05;12.02;;;28.60;1.00;;;;;;4403026;28;658497;-70
2021/09/27 13:13:42;;;;;;;23.05;10.38;;;28.70;83.60;;;;;;4416155;28;658791;-70
2021/09/27 13:16:33;;;;;;;19.67;10.55;;;28.50;77.00;;;;;;4424472;28;659674;-70
2021/09/27 13:19:39;;;;;;;17.40;10.13;;;28.30;1.00;;;;;;4420048;28;660663;-70
2021/09/27 13:22:29;;;;;;;17.80;10.20;;;28.00;99.90;;;;;;4419993;28;659404;-70
2021/09/27 13:25:21;;;;;;;14.98;8.95;;;27.90;20.60;;;;;;4419958;28;659829;-70
2021/09/27 13:28:14;;;;;;;15.75;8.80;;;28.00;1.00;;;;;;4425068;28;658515;-70
2021/09/27 13:31:06;;;;;;;12.68;8.85;;;28.10;1.00;;;;;;4419991;28;657578;-70
2021/09/27 13:33:54;;;;;;;13.20;8.40;;;28.10;40.80;;;;;;4425188;28;657438;-70
2021/09/27 13:36:46;;;;;;;17.88;9.07;;;28.30;1.00;;;;;;4448049;28;659182;-70
2021/09/27 13:39:39;;;;;;;14.52;9.23;;;28.40;27.30;;;;;;4406758;28;658897;-70
2021/09/27 13:42:40;;;;;;;15.73;8.47;;;28.50;6.90;;;;;;4423507;28;659094;-70
2021/09/27 13:45:30;;;;;;;14.60;7.82;;;28.70;1.00;;;;;;4406192;28;657775;-70
2021/09/27 13:48:18;;;;;;;13.57;8.30;;;28.80;1.00;;;;;;4443881;28;657793;-70
2021/09/27 13:51:05;;;;;;;18.45;7.88;;;29.10;1.00;;;;;;4447897;28;657500;-70
2021/09/27 13:53:55;;;;;;;12.60;7.75;;;29.30;1.00;;;;;;4424978;28;657973;-70
2021/09/27 13:56:44;;;;;;;12.40;7.63;;;29.40;1.00;;;;;;4446903;28;657293;-70
2021/09/27 13:59:32;;;;;;;11.13;8.02;;;30.30;1.00;;;;;;4448988;28;657821;-70
2021/09/27 14:02:22;;;;;;;13.75;7.80;;;30.70;1.00;;;;;;4425980;28;659185;-70
2021/09/27 14:05:10;;;;;;;10.68;7.57;;;31.10;3.00;;;;;;4426881;28;658075;-70
2021/09/27 14:07:58;;;;;;;12.55;6.60;;;31.80;1.00;;;;;;4423383;28;657809;-70
2021/09/27 14:10:45;;;;;;;9.60;6.75;;;32.50;99.90;;;;;;4448884;28;658154;-70
2021/09/27 14:13:35;;;;;;;8.98;6.20;;;33.60;99.90;;;;;;4429427;28;659067;-72
2021/09/27 14:16:23;;;;;;;11.52;6.93;;;34.20;3.40;;;;;;4448545;28;657305;-70
2021/09/27 14:19:10;;;;;;;14.23;7.00;;;34.40;1.00;;;;;;4422527;28;658044;-70
2021/09/27 14:22:00;;;;;;;9.43;7.10;;;34.80;1.00;;;;;;4429360;28;659217;-70
2021/09/27 14:24:48;;;;;;;10.02;7.20;;;34.60;99.90;;;;;;4436048;28;656467;-70
2021/09/27 14:27:35;;;;;;;10.48;6.90;;;35.10;99.90;;;;;;4448495;28;659261;-70
2021/09/27 14:30:25;;;;;;;10.07;6.03;;;35.10;1.00;;;;;;4428492;28;658672;-70